createdAt,value
2022-09-12T00:04:44.282Z,84.92
2022-09-12T00:09:53.132Z,85.47
2022-09-12T00:14:59.336Z,85.87
2022-09-12T00:20:05.248Z,86.55
2022-09-12T00:25:07.496Z,85.91
2022-09-12T00:30:11.673Z,86.06
2022-09-12T00:35:15.442Z,86.55
2022-09-12T00:40:17.508Z,86.55
2022-09-12T00:45:27.725Z,86.30
2022-09-12T00:50:29.877Z,86.79
2022-09-12T00:55:44.117Z,86.75
2022-09-12T01:00:50.659Z,86.67
2022-09-12T01:06:41.236Z,87.36
2022-09-12T01:11:47.123Z,88.45
2022-09-12T01:16:53.668Z,88.98
2022-09-12T01:22:31.436Z,90.72
2022-09-12T01:28:10.927Z,91.87
2022-09-12T01:33:37.332Z,93.39
2022-09-12T01:38:48.812Z,93.88
2022-09-12T01:44:07.500Z,93.03
2022-09-12T01:49:14.805Z,93.77
2022-09-12T01:54:29.870Z,94.74
2022-09-12T01:59:36.252Z,95.28
2022-09-12T02:04:43.149Z,96.17
2022-09-12T02:09:53.070Z,96.36
2022-09-12T02:15:04.388Z,97.15
2022-09-12T02:20:21.374Z,97.99
2022-09-12T02:25:38.415Z,98.03
2022-09-12T02:30:49.760Z,98.59
2022-09-12T02:35:58.533Z,98.64
2022-09-12T02:41:02.364Z,99.18
2022-09-12T02:46:10.362Z,98.30
2022-09-12T02:51:14.250Z,98.51
2022-09-12T02:56:22.301Z,98.47
2022-09-12T03:01:33.115Z,98.65
2022-09-12T03:07:11.085Z,98.98
2022-09-12T03:12:28.040Z,99.04
2022-09-12T03:17:41.978Z,99.63
2022-09-12T03:22:56.644Z,100.00
2022-09-12T03:28:01.638Z,100.00
2022-09-12T03:33:05.886Z,99.83
2022-09-12T03:38:10.386Z,99.92
2022-09-12T03:43:12.373Z,98.81
2022-09-12T03:48:14.401Z,98.58
2022-09-12T03:53:17.363Z,99.24
2022-09-12T03:58:19.271Z,99.54
2022-09-12T04:03:21.120Z,100.00
2022-09-12T04:08:28.895Z,100.00
2022-09-12T04:13:32.332Z,100.00
2022-09-12T04:18:36.611Z,100.00
2022-09-12T04:23:43.529Z,100.00
2022-09-12T04:28:46.658Z,100.00
2022-09-12T04:33:48.705Z,100.00
2022-09-12T04:38:53.861Z,100.00
2022-09-12T04:44:02.190Z,100.00
2022-09-12T04:49:09.394Z,100.00
2022-09-12T04:54:16.279Z,100.00
2022-09-12T04:59:26.526Z,100.00
2022-09-12T05:04:28.888Z,100.00
2022-09-12T05:09:31.940Z,100.00
2022-09-12T05:14:36.039Z,100.00
2022-09-12T05:19:40.194Z,100.00
2022-09-12T05:24:50.606Z,100.00
2022-09-12T05:29:58.402Z,100.00
2022-09-12T05:35:05.140Z,100.00
2022-09-12T05:40:08.590Z,100.00
2022-09-12T05:45:15.133Z,100.00
2022-09-12T05:50:23.380Z,100.00
2022-09-12T05:55:25.360Z,100.00
2022-09-12T06:00:33.329Z,100.00
2022-09-12T06:05:47.616Z,100.00
2022-09-12T06:10:51.802Z,100.00
2022-09-12T06:16:06.228Z,100.00
2022-09-12T06:21:15.458Z,100.00
2022-09-12T06:26:25.681Z,100.00
2022-09-12T06:31:33.869Z,100.00
2022-09-12T06:36:41.421Z,100.00
2022-09-12T06:41:51.179Z,100.00
2022-09-12T06:46:55.114Z,100.00
2022-09-12T06:52:01.749Z,99.99
2022-09-12T06:57:07.491Z,99.24
2022-09-12T07:02:10.019Z,99.59
2022-09-12T07:07:13.015Z,98.80
2022-09-12T07:12:16.993Z,98.53
2022-09-12T07:17:21.040Z,98.65
2022-09-12T07:22:25.728Z,98.77
2022-09-12T07:27:29.502Z,98.62
2022-09-12T07:32:31.558Z,98.24
2022-09-12T07:37:36.636Z,97.65
2022-09-12T07:42:40.976Z,97.35
2022-09-12T07:47:42.738Z,97.92
2022-09-12T07:52:46.807Z,98.19
2022-09-12T07:57:54.802Z,97.81
2022-09-12T08:02:56.722Z,97.45
2022-09-12T08:08:00.996Z,97.19
2022-09-12T08:13:03.811Z,97.84
2022-09-12T08:18:08.102Z,96.39
2022-09-12T08:23:09.798Z,96.93
2022-09-12T08:28:13.766Z,96.69
2022-09-12T08:33:15.505Z,95.99
2022-09-12T08:38:19.807Z,95.72
2022-09-12T08:43:38.775Z,95.01
2022-09-12T08:48:43.951Z,94.89
2022-09-12T08:53:47.915Z,94.45
2022-09-12T08:58:50.090Z,93.86
2022-09-12T09:04:10.103Z,93.61
2022-09-12T09:09:29.825Z,93.27
2022-09-12T09:15:21.414Z,93.11
2022-09-12T09:20:37.196Z,92.27
2022-09-12T09:26:14.728Z,92.04
2022-09-12T09:31:21.445Z,91.27
2022-09-12T09:36:49.555Z,91.49
2022-09-12T09:42:17.027Z,91.52
2022-09-12T09:47:20.937Z,91.19
2022-09-12T09:52:27.748Z,91.36
2022-09-12T09:57:35.247Z,90.70
2022-09-12T10:02:37.238Z,89.72
2022-09-12T10:07:38.950Z,89.77
2022-09-12T10:12:41.012Z,87.81
2022-09-12T10:17:52.609Z,86.23
2022-09-12T10:22:54.373Z,83.18
2022-09-12T10:28:00.808Z,82.54
2022-09-12T10:33:11.158Z,82.57
2022-09-12T10:38:30.381Z,82.73
2022-09-12T10:43:42.392Z,81.32
2022-09-12T10:49:05.173Z,79.78
2022-09-12T10:54:10.622Z,79.83
2022-09-12T10:59:34.346Z,79.59
2022-09-12T11:04:57.468Z,78.18
2022-09-12T11:10:18.630Z,76.75
2022-09-12T11:15:29.746Z,74.92
2022-09-12T11:21:05.456Z,74.72
2022-09-12T11:26:42.491Z,73.68
2022-09-12T11:32:08.520Z,72.36
2022-09-12T11:37:18.057Z,71.62
2022-09-12T11:42:26.971Z,70.50
2022-09-12T11:47:37.033Z,70.05
2022-09-12T11:52:41.837Z,68.84
2022-09-12T11:57:58.859Z,67.16
2022-09-12T12:03:09.423Z,65.63
2022-09-12T12:08:11.515Z,63.78
2022-09-12T12:13:29.770Z,64.49
2022-09-12T12:18:36.394Z,62.58
2022-09-12T12:23:40.529Z,62.36
2022-09-12T12:28:50.435Z,61.02
2022-09-12T12:33:54.334Z,57.70
2022-09-12T12:38:56.078Z,55.07
2022-09-12T12:43:57.934Z,54.66
2022-09-12T12:49:18.029Z,53.15
2022-09-12T12:54:57.077Z,50.01
2022-09-12T13:00:06.948Z,50.14
2022-09-12T13:05:18.473Z,49.91
2022-09-12T13:10:29.932Z,48.74
2022-09-12T13:15:41.412Z,47.16
2022-09-12T13:21:11.193Z,45.88
2022-09-12T13:26:26.631Z,47.21
2022-09-12T13:31:39.450Z,46.79
2022-09-12T13:37:11.221Z,44.47
2022-09-12T13:42:28.146Z,42.48
2022-09-12T13:47:41.253Z,42.46
2022-09-12T13:52:47.128Z,42.43
2022-09-12T13:57:58.148Z,42.90
2022-09-12T14:03:27.737Z,42.76
2022-09-12T14:08:30.313Z,44.19
2022-09-12T14:13:36.105Z,45.32
2022-09-12T14:18:39.101Z,46.90
2022-09-12T14:23:48.946Z,46.87
2022-09-12T14:28:55.494Z,46.71
2022-09-12T14:34:16.947Z,45.96
2022-09-12T14:39:28.777Z,46.56
2022-09-12T14:44:33.286Z,47.30
2022-09-12T14:49:36.638Z,47.31
2022-09-12T14:54:40.217Z,47.56
2022-09-12T14:59:49.931Z,45.40
2022-09-12T15:05:04.357Z,46.38
2022-09-12T15:10:31.472Z,48.26
2022-09-12T15:15:34.000Z,49.06
2022-09-12T15:20:38.026Z,48.21
2022-09-12T15:25:42.122Z,48.80
2022-09-12T15:30:47.820Z,48.17
2022-09-12T15:35:55.397Z,49.15
2022-09-12T15:40:57.350Z,49.80
2022-09-12T15:45:59.374Z,50.22
2022-09-12T15:51:04.951Z,50.03
2022-09-12T15:56:08.892Z,50.93
2022-09-12T16:01:12.896Z,51.42
2022-09-12T16:06:15.605Z,51.28
2022-09-12T16:11:21.474Z,50.71
2022-09-12T16:16:33.185Z,50.58
2022-09-12T16:21:36.753Z,51.56
2022-09-12T16:26:52.341Z,51.41
2022-09-12T16:31:56.604Z,52.43
2022-09-12T16:37:01.872Z,52.03
2022-09-12T16:42:08.695Z,52.33
2022-09-12T16:47:15.045Z,53.28
2022-09-12T16:52:17.098Z,53.11
2022-09-12T16:57:19.687Z,53.45
2022-09-12T17:02:23.746Z,53.72
2022-09-12T17:07:27.696Z,54.89
2022-09-12T17:12:31.410Z,54.87
2022-09-12T17:17:33.314Z,55.54
2022-09-12T17:22:38.202Z,56.74
2022-09-12T17:27:43.587Z,56.94
2022-09-12T17:32:45.941Z,58.79
2022-09-12T17:37:51.066Z,59.45
2022-09-12T17:42:52.843Z,60.21
2022-09-12T17:47:59.412Z,62.40
2022-09-12T17:53:03.335Z,61.95
2022-09-12T17:58:06.442Z,62.42
2022-09-12T18:03:08.198Z,63.02
2022-09-12T18:08:12.543Z,63.67
2022-09-12T18:13:16.348Z,63.98
2022-09-12T18:18:21.554Z,63.71
2022-09-12T18:23:27.935Z,64.51
2022-09-12T18:28:35.449Z,65.32
2022-09-12T18:33:38.678Z,65.09
2022-09-12T18:38:41.159Z,65.41
2022-09-12T18:43:43.450Z,65.21
2022-09-12T18:48:48.075Z,65.54
2022-09-12T18:54:03.886Z,65.36
2022-09-12T18:59:09.785Z,65.94
2022-09-12T19:04:14.517Z,65.97
2022-09-12T19:09:23.291Z,65.49
2022-09-12T19:14:26.944Z,65.60
2022-09-12T19:19:28.734Z,65.54
2022-09-12T19:24:30.958Z,65.30
2022-09-12T19:29:32.806Z,66.02
2022-09-12T19:34:34.494Z,65.48
2022-09-12T19:39:36.236Z,65.58
2022-09-12T19:44:42.837Z,64.95
2022-09-12T19:49:49.358Z,64.95
2022-09-12T19:54:55.797Z,65.48
2022-09-12T20:00:02.997Z,65.47
2022-09-12T20:05:08.338Z,65.17
2022-09-12T20:10:12.435Z,64.81
2022-09-12T20:15:16.583Z,65.52
2022-09-12T20:20:25.802Z,65.57
2022-09-12T20:25:30.149Z,65.64
2022-09-12T20:30:31.924Z,65.20
2022-09-12T20:35:33.745Z,65.21
2022-09-12T20:40:38.726Z,65.98
2022-09-12T20:45:41.628Z,66.27
2022-09-12T20:50:48.852Z,66.40
2022-09-12T20:55:53.778Z,65.89
2022-09-12T21:00:57.679Z,67.11
2022-09-12T21:06:04.792Z,67.37
2022-09-12T21:11:10.033Z,68.41
2022-09-12T21:16:19.152Z,69.43
2022-09-12T21:21:23.567Z,69.91
2022-09-12T21:26:31.451Z,71.25
2022-09-12T21:31:33.162Z,72.15
2022-09-12T21:36:34.885Z,73.56
2022-09-12T21:41:36.567Z,75.22
2022-09-12T21:46:38.563Z,75.53
2022-09-12T21:51:42.557Z,76.51
2022-09-12T21:56:47.659Z,77.67
2022-09-12T22:01:51.854Z,79.52
2022-09-12T22:06:58.622Z,81.09
2022-09-12T22:12:05.126Z,81.06
2022-09-12T22:17:08.099Z,80.75
2022-09-12T22:22:28.595Z,81.56
2022-09-12T22:27:33.264Z,80.65
2022-09-12T22:32:37.766Z,81.61
2022-09-12T22:37:43.838Z,82.89
2022-09-12T22:42:50.133Z,84.15
2022-09-12T22:48:05.090Z,84.34
2022-09-12T22:53:15.513Z,85.29
2022-09-12T22:58:17.695Z,84.83
2022-09-12T23:03:24.829Z,86.06
2022-09-12T23:08:29.574Z,87.64
2022-09-12T23:13:33.934Z,88.08
2022-09-12T23:18:42.583Z,89.15
2022-09-12T23:23:47.483Z,89.44
2022-09-12T23:28:57.122Z,90.74
2022-09-12T23:34:04.189Z,91.09
2022-09-12T23:39:11.786Z,92.75
2022-09-12T23:44:14.088Z,91.68
2022-09-12T23:49:15.718Z,92.72
2022-09-12T23:54:22.476Z,93.61
2022-09-12T23:59:26.437Z,93.76
